createdAt,value
2023-02-09T00:01:26.451Z,1.37
2023-02-09T00:06:31.635Z,1.39
2023-02-09T00:11:55.653Z,1.40
2023-02-09T00:16:59.492Z,1.34
2023-02-09T00:22:06.688Z,1.35
2023-02-09T00:27:10.749Z,1.37
2023-02-09T00:32:14.579Z,1.37
2023-02-09T00:37:19.706Z,1.36
2023-02-09T00:42:23.451Z,1.30
2023-02-09T00:47:28.022Z,1.17
2023-02-09T00:52:33.176Z,1.20
2023-02-09T00:57:37.079Z,1.18
2023-02-09T01:02:41.036Z,1.09
2023-02-09T01:07:46.097Z,0.97
2023-02-09T01:12:52.606Z,1.02
2023-02-09T01:17:56.381Z,1.00
2023-02-09T01:23:03.474Z,1.01
2023-02-09T01:28:07.356Z,0.94
2023-02-09T01:33:11.126Z,0.96
2023-02-09T01:38:16.244Z,0.90
2023-02-09T01:43:20.148Z,0.81
2023-02-09T01:48:29.464Z,0.82
2023-02-09T01:53:35.037Z,0.75
2023-02-09T01:58:40.347Z,0.71
2023-02-09T02:03:44.878Z,0.73
2023-02-09T02:08:56.533Z,0.73
2023-02-09T02:14:00.599Z,0.62
2023-02-09T02:19:32.832Z,0.58
2023-02-09T02:24:57.021Z,0.49
2023-02-09T02:30:17.298Z,0.48
2023-02-09T02:35:33.108Z,0.36
2023-02-09T02:40:48.879Z,0.33
2023-02-09T02:45:58.463Z,0.32
2023-02-09T02:51:07.255Z,0.28
2023-02-09T02:56:16.393Z,0.19
2023-02-09T03:01:24.721Z,0.08
2023-02-09T03:06:32.406Z,0.16
2023-02-09T03:11:40.159Z,0.03
2023-02-09T03:16:47.191Z,-0.03
2023-02-09T03:21:56.917Z,-0.01
2023-02-09T03:27:05.796Z,-0.14
2023-02-09T03:32:10.343Z,-0.13
2023-02-09T03:37:15.656Z,-0.25
2023-02-09T03:42:19.414Z,-0.15
2023-02-09T03:47:23.148Z,-0.31
2023-02-09T03:52:28.238Z,-0.30
2023-02-09T03:57:32.018Z,-0.40
2023-02-09T04:02:35.821Z,-0.32
2023-02-09T04:07:41.082Z,-0.41
2023-02-09T04:12:44.809Z,-0.31
2023-02-09T04:17:50.759Z,-0.43
2023-02-09T04:22:55.948Z,-0.51
2023-02-09T04:27:59.745Z,-0.44
2023-02-09T04:33:03.542Z,-0.45
2023-02-09T04:38:08.649Z,-0.39
2023-02-09T04:43:12.507Z,-0.41
2023-02-09T04:48:17.924Z,-0.35
2023-02-09T04:53:23.535Z,-0.34
2023-02-09T04:58:45.023Z,-0.35
2023-02-09T05:03:48.845Z,-0.45
2023-02-09T05:08:53.965Z,-0.45
2023-02-09T05:13:57.784Z,-0.37
2023-02-09T05:19:01.580Z,-0.38
2023-02-09T05:24:07.634Z,-0.33
2023-02-09T05:29:11.471Z,-0.36
2023-02-09T05:34:15.196Z,-0.42
2023-02-09T05:39:20.441Z,-0.52
2023-02-09T05:44:24.624Z,-0.56
2023-02-09T05:49:28.396Z,-0.47
2023-02-09T05:54:34.121Z,-0.53
2023-02-09T05:59:37.902Z,-0.62
2023-02-09T06:04:41.731Z,-0.62
2023-02-09T06:09:46.819Z,-0.67
2023-02-09T06:14:50.552Z,-0.71
2023-02-09T06:19:54.306Z,-0.72
2023-02-09T06:24:59.464Z,-0.75
2023-02-09T06:30:03.305Z,-0.74
2023-02-09T06:35:07.529Z,-0.72
2023-02-09T06:40:13.726Z,-0.88
2023-02-09T06:45:18.531Z,-0.80
2023-02-09T06:50:22.334Z,-0.87
2023-02-09T06:55:27.740Z,-0.98
2023-02-09T07:00:32.100Z,-0.86
2023-02-09T07:05:35.847Z,-0.97
2023-02-09T07:10:42.737Z,-0.90
2023-02-09T07:15:46.510Z,-1.01
2023-02-09T07:20:55.118Z,-0.94
2023-02-09T07:26:04.264Z,-0.91
2023-02-09T07:31:10.729Z,-0.84
2023-02-09T07:36:16.475Z,-0.79
2023-02-09T07:41:25.162Z,-0.78
2023-02-09T07:46:28.929Z,-0.71
2023-02-09T07:51:34.276Z,-0.72
2023-02-09T07:56:39.421Z,-0.75
2023-02-09T08:01:43.495Z,-0.64
2023-02-09T08:06:54.449Z,-0.58
2023-02-09T08:12:04.006Z,-0.63
2023-02-09T08:17:21.403Z,-0.44
2023-02-09T08:22:29.400Z,-0.36
2023-02-09T08:27:34.484Z,-0.32
2023-02-09T08:32:38.148Z,-0.18
2023-02-09T08:37:42.022Z,-0.07
2023-02-09T08:42:47.124Z,0.01
2023-02-09T08:47:51.212Z,0.10
2023-02-09T08:52:58.019Z,0.27
2023-02-09T08:58:03.109Z,0.45
2023-02-09T09:03:06.956Z,0.43
2023-02-09T09:08:10.786Z,0.47
2023-02-09T09:13:15.984Z,0.66
2023-02-09T09:18:20.083Z,0.73
2023-02-09T09:23:23.938Z,0.92
2023-02-09T09:28:29.386Z,1.02
2023-02-09T09:33:33.342Z,1.12
2023-02-09T09:38:38.656Z,1.15
2023-02-09T09:43:44.072Z,1.23
2023-02-09T09:48:51.905Z,1.45
2023-02-09T09:53:57.378Z,1.40
2023-02-09T09:59:02.891Z,1.61
2023-02-09T10:04:14.400Z,1.54
2023-02-09T10:09:30.042Z,1.90
2023-02-09T10:14:37.435Z,1.99
2023-02-09T10:19:41.450Z,2.22
2023-02-09T10:24:45.308Z,2.29
2023-02-09T10:29:50.431Z,2.52
2023-02-09T10:34:56.950Z,2.85
2023-02-09T10:40:08.928Z,2.95
2023-02-09T10:45:26.410Z,2.97
2023-02-09T10:50:30.428Z,3.50
2023-02-09T10:55:37.076Z,3.96
2023-02-09T11:00:50.144Z,4.35
2023-02-09T11:06:03.412Z,4.76
2023-02-09T11:11:12.128Z,4.65
2023-02-09T11:16:45.417Z,4.96
2023-02-09T11:22:01.753Z,5.43
2023-02-09T11:27:13.655Z,5.62
2023-02-09T11:32:21.674Z,5.54
2023-02-09T11:37:31.586Z,6.05
2023-02-09T11:42:47.013Z,6.35
2023-02-09T11:48:01.717Z,6.29
2023-02-09T11:53:13.157Z,6.60
2023-02-09T11:58:32.042Z,6.48
2023-02-09T12:03:37.190Z,6.20
2023-02-09T12:09:04.173Z,6.42
2023-02-09T12:14:19.376Z,7.05
2023-02-09T12:19:35.383Z,7.31
2023-02-09T12:24:41.424Z,7.43
2023-02-09T12:29:45.197Z,7.52
2023-02-09T12:34:52.386Z,8.10
2023-02-09T12:40:22.564Z,8.32
2023-02-09T12:45:36.842Z,7.85
2023-02-09T12:50:54.257Z,7.38
2023-02-09T12:56:24.092Z,6.75
2023-02-09T13:02:01.181Z,6.50
2023-02-09T13:07:13.862Z,6.81
2023-02-09T13:12:21.176Z,7.33
2023-02-09T13:17:36.190Z,6.77
2023-02-09T13:22:57.605Z,6.46
2023-02-09T13:28:10.674Z,6.28
2023-02-09T13:33:28.253Z,6.39
2023-02-09T13:38:35.937Z,6.27
2023-02-09T13:43:40.462Z,6.21
2023-02-09T13:48:44.256Z,6.32
2023-02-09T13:53:58.987Z,6.32
2023-02-09T13:59:03.020Z,6.02
2023-02-09T14:04:12.625Z,6.28
2023-02-09T14:09:21.878Z,6.28
2023-02-09T14:14:49.654Z,6.33
2023-02-09T14:19:54.337Z,6.30
2023-02-09T14:24:59.716Z,6.54
2023-02-09T14:30:03.530Z,6.63
2023-02-09T14:35:18.318Z,6.59
2023-02-09T14:40:29.920Z,6.59
2023-02-09T14:45:39.942Z,6.56
2023-02-09T14:50:43.728Z,6.70
2023-02-09T14:55:49.003Z,6.42
2023-02-09T15:00:54.311Z,6.40
2023-02-09T15:06:00.204Z,6.29
2023-02-09T15:11:28.157Z,6.02
2023-02-09T15:16:32.625Z,6.24
2023-02-09T15:21:36.409Z,6.23
2023-02-09T15:26:41.671Z,6.23
2023-02-09T15:31:45.523Z,6.27
2023-02-09T15:36:49.435Z,6.30
2023-02-09T15:42:12.196Z,6.16
2023-02-09T15:47:33.597Z,5.84
2023-02-09T15:52:37.360Z,5.92
2023-02-09T15:57:42.542Z,5.82
2023-02-09T16:02:47.826Z,5.90
2023-02-09T16:07:52.994Z,5.87
2023-02-09T16:12:58.439Z,5.64
2023-02-09T16:18:02.243Z,5.62
2023-02-09T16:23:19.890Z,5.63
2023-02-09T16:28:26.149Z,5.69
2023-02-09T16:33:29.981Z,5.75
2023-02-09T16:38:33.713Z,5.79
2023-02-09T16:43:38.762Z,5.69
2023-02-09T16:48:46.629Z,5.63
2023-02-09T16:53:52.451Z,5.72
2023-02-09T16:58:57.606Z,5.65
2023-02-09T17:04:03.264Z,5.53
2023-02-09T17:09:15.064Z,5.56
2023-02-09T17:14:20.166Z,5.57
2023-02-09T17:19:23.963Z,5.63
2023-02-09T17:24:27.693Z,5.59
2023-02-09T17:29:33.867Z,5.64
2023-02-09T17:34:37.671Z,5.60
2023-02-09T17:39:41.835Z,5.61
2023-02-09T17:44:47.074Z,5.57
2023-02-09T17:49:51.068Z,5.52
2023-02-09T17:54:54.855Z,5.60
2023-02-09T18:00:00.024Z,5.59
2023-02-09T18:05:03.989Z,5.59
2023-02-09T18:10:08.835Z,5.67
2023-02-09T18:15:22.460Z,5.51
2023-02-09T18:20:29.270Z,5.52
2023-02-09T18:25:35.795Z,5.49
2023-02-09T18:30:41.201Z,5.57
2023-02-09T18:35:46.441Z,5.43
2023-02-09T18:40:51.700Z,5.47
2023-02-09T18:45:56.941Z,5.40
2023-02-09T18:51:00.972Z,5.27
2023-02-09T18:56:05.433Z,5.25
2023-02-09T19:01:12.512Z,5.16
2023-02-09T19:06:16.414Z,5.10
2023-02-09T19:11:22.752Z,4.98
2023-02-09T19:16:28.091Z,4.93
2023-02-09T19:21:32.455Z,4.90
2023-02-09T19:26:36.310Z,4.82
2023-02-09T19:31:41.764Z,4.93
2023-02-09T19:36:45.788Z,4.96
2023-02-09T19:41:49.538Z,4.90
2023-02-09T19:46:54.720Z,4.91
2023-02-09T19:51:58.948Z,4.84
2023-02-09T19:57:04.515Z,4.81
2023-02-09T20:02:11.382Z,4.80
2023-02-09T20:07:15.648Z,4.74
2023-02-09T20:12:21.862Z,4.72
2023-02-09T20:17:28.082Z,4.69
2023-02-09T20:22:32.374Z,4.60
2023-02-09T20:27:36.251Z,4.47
2023-02-09T20:32:41.673Z,4.39
2023-02-09T20:37:45.458Z,4.29
2023-02-09T20:43:07.091Z,4.27
2023-02-09T20:48:12.226Z,4.24
2023-02-09T20:53:15.951Z,4.17
2023-02-09T20:58:20.173Z,4.12
2023-02-09T21:03:25.356Z,4.03
2023-02-09T21:08:29.181Z,4.01
2023-02-09T21:13:32.978Z,3.91
2023-02-09T21:18:38.738Z,3.89
2023-02-09T21:23:42.924Z,3.82
2023-02-09T21:28:48.489Z,3.80
2023-02-09T21:33:53.760Z,3.79
2023-02-09T21:38:57.474Z,3.73
2023-02-09T21:44:01.483Z,3.68
2023-02-09T21:49:07.149Z,3.62
2023-02-09T21:54:14.153Z,3.57
2023-02-09T21:59:18.070Z,3.50
2023-02-09T22:04:23.199Z,3.43
2023-02-09T22:09:27.049Z,3.42
2023-02-09T22:14:31.298Z,3.36
2023-02-09T22:19:36.678Z,3.34
2023-02-09T22:24:40.486Z,3.34
2023-02-09T22:29:45.799Z,3.30
2023-02-09T22:34:50.934Z,3.26
2023-02-09T22:39:54.666Z,3.26
2023-02-09T22:44:58.428Z,3.21
2023-02-09T22:50:03.550Z,3.14
2023-02-09T22:55:07.876Z,3.11
2023-02-09T23:00:14.204Z,3.06
2023-02-09T23:05:21.561Z,3.05
2023-02-09T23:10:25.336Z,3.02
2023-02-09T23:15:29.157Z,2.97
2023-02-09T23:20:34.406Z,2.95
2023-02-09T23:25:38.147Z,2.97
2023-02-09T23:30:41.846Z,2.95
2023-02-09T23:35:47.233Z,2.90
2023-02-09T23:40:51.146Z,2.85
2023-02-09T23:45:55.043Z,2.77
2023-02-09T23:51:01.281Z,2.74
2023-02-09T23:56:06.262Z,2.73
